Terminal Aerodrome Forecast
Issued by NWS

Home | Current Version | Previous Version | Text Only | Print | Product List | Glossary On
Versions: 1 2 3 4 5 6 7 8 9 10 11 12
000
FTUS46 KSEW 292339
TAFBLI
TAF
KBLI 292339Z 3000/3024 15011G20KT P6SM -RA SCT035 OVC050
     FM300400 17013G20KT P6SM VCSH SCT018 BKN025
     FM302100 18010KT P6SM VCSH SCT030 BKN045=

USA.gov is the U.S. government's official web portal to all federal, state and local government web resources and services.